Rockford, IL

1:27 AM CDT on August 29, 2015 (GMT -0500)
Greater Rockford | | Change Station
CLOSE
Current Station
Airport
Location: Rockford,
Elevation: 741 ft
Nearby Weather Stations

Elev 741 ft 42.19 °N, 89.09 °W | Updated 33 minutes ago

Rain
Rain Mist
65 °F
Feels Like 65 °F
N
12
Wind Variable Wind from ESE

Today
High -- | Low -- °F
--% Chance of Precip.
Yesterday
High -- | Low -- °F
Precip. -- in
6:18 AM 7:35 PM
Full, 100% visible
Pressure 30.05 in
Visibility 4.0 miles
Clouds Few 4500 ft
Mostly Cloudy 5500 ft
Overcast 9000 ft
Dew Point 62 °F
Humidity 90%
Rainfall 0.12 in
Snow Depth Not available.
UV 0 out of 12
Pollen 8.30 out of 12
Air Quality Not available.
Flu Activity Not available.
METAR KRFD 290554Z 12010KT 4SM RA BR FEW045 BKN055 OVC090 18/17 A3006 RMK AO2 SLP175 P0012 60020 T01830167 10200 20183 402110144 58006
Pressure 30.05 in
Visibility 4.0 miles
Clouds Few 4500 ft
Mostly Cloudy 5500 ft
Overcast 9000 ft
Dew Point 62 °F
Humidity 90%
Rainfall 0.12 in
Snow Depth Not available.
UV 0 out of 12
Pollen 8.30 out of 12
Air Quality Not available.
Flu Activity Not available.
METAR KRFD 290554Z 12010KT 4SM RA BR FEW045 BKN055 OVC090 18/17 A3006 RMK AO2 SLP175 P0012 60020 T01830167 10200 20183 402110144 58006

10-Day Weather Forecast

×

Almanac

Astronomy

Aug. 29, 2015 Rise Set
Actual Time
Civil Twilight
Nautical Twilight
Astronomical Twilight
Moon
Length of Visible Light
Length of Day
Tomorrow will be .
, % of the Moon is Illuminated

Today's Extremes

State Highs State Lows

Community

WunderPhotos

Upload Photos

1,850,622 photos uploaded!

WunderBlogs® & News

Nearby

Air Quality

  Air Quality AQ Index Pollutant
Not available.

Snow Depth

Station Depth Elevation

Earthquake Activity

City Distance Mag. Time & Date
Minimum magnitude displayed is 2.5.

Coastal Water Temperatures

Place Temperature

Stations

Nearby Weather Stations

Station Location Temp. Windchill Dew Point Humidity Wind Precip. Elev Updated Type